Argusville, North Dakota
Current Conditions -  °F | °C
As of 8:53 AM on Thursday 18 Dec 2014 (Local Time) from KFAR Reporting Station
Broken Clouds Broken Clouds  
Wind Chill:   Ceiling: 12000
Heat Index: 13°   Visibility: 9mi
Dew Point:   Wind: 10mph
Humidity: 81%   Direction: 160°SSE
Pressure: 30.25"   Gusts: NA
Location:  47.05°N, 96.93°W
Report Text: KFAR 181453Z 16009KT 9SM BKN120 M11/M13 A3025 RMK AO2 SLP264 T11061133 56005 FZRANO TSNO
Loading
Personal Weather Stations






























Interactive Weather Map New forecast layout! Learn more

10-Day Weather Forecast

Advertisements
Track Severe Weather on mobile